Time;durP1;ratioP1;P1;durP2;ratioP2;P2;SDS_P1;SDS_P2;PMS_P1;PMS_P2;Temp;Humidity;BMP_temperature;BMP_pressure;BME280_temperature;BME280_humidity;BME280_pressure;Samples;Min_cycle;Max_cycle;Signal;HPM_P1;HPM_P2
2023/06/09 00:01:37;;;;;;;;;;;;;;;18.56;88.22;-18526.53;5033666;28;19944;-84
2023/06/09 00:04:02;;;;;;;;;;;;;;;18.56;89.15;-18526.53;5035286;28;19964;-82
2023/06/09 00:06:30;;;;;;;;;;;;;;;18.68;89.33;-18529.81;5031824;28;19928;-83
2023/06/09 00:08:57;;;;;;;;;;;;;;;18.25;93.41;-18518.22;5031590;28;19966;-84
2023/06/09 00:11:22;;;;;;;;;;;;;;;18.46;93.38;-18523.94;5025316;28;19925;-84
2023/06/09 00:13:48;;;;;;;;;;;;;;;18.39;93.81;-18521.91;5028959;28;19948;-85
2023/06/09 00:16:13;;;;;;;;;;;;;;;18.25;94.97;-18518.34;5026207;28;19993;-85
2023/06/09 00:18:40;;;;;;;;;;;;;;;18.34;95.34;-18520.66;5022794;28;20066;-85
2023/06/09 00:21:05;;;;;;;;;;;;;;;18.30;95.68;-18519.56;5023422;28;19921;-84
2023/06/09 00:23:30;;;;;;;;;;;;;;;18.33;96.43;-18520.25;5022101;28;19933;-83
2023/06/09 00:25:56;;;;;;;;;;;;;;;18.30;97.13;-18519.44;5023278;28;20083;-84
2023/06/09 00:28:21;;;;;;;;;;;;;;;18.37;97.43;-18521.47;5025510;28;20138;-84
2023/06/09 00:30:46;;;;;;;;;;;;;;;18.24;98.96;-18518.06;5032412;28;19938;-84
2023/06/09 00:33:11;;;;;;;;;;;;;;;18.13;100.00;-18514.94;5040423;28;19944;-82
2023/06/09 00:35:37;;;;;;;;;;;;;;;18.19;100.00;-18516.56;5037889;28;20024;-83
2023/06/09 00:38:02;;;;;;;;;;;;;;;18.19;100.00;-18516.72;5032410;28;20082;-83
2023/06/09 00:40:27;;;;;;;;;;;;;;;17.95;100.00;-18510.16;5029227;28;19921;-83
2023/06/09 00:42:53;;;;;;;;;;;;;;;18.04;100.00;-18512.75;5035663;28;19925;-84
2023/06/09 00:45:18;;;;;;;;;;;;;;;17.98;100.00;-18510.97;5035255;28;19921;-84
2023/06/09 00:47:44;;;;;;;;;;;;;;;18.00;100.00;-18511.53;5024909;28;19921;-84
2023/06/09 00:50:11;;;;;;;;;;;;;;;17.98;100.00;-18510.97;5028443;28;19921;-82
2023/06/09 00:52:37;;;;;;;;;;;;;;;17.90;100.00;-18508.81;5029925;28;19956;-84
2023/06/09 00:55:02;;;;;;;;;;;;;;;17.81;100.00;-18506.47;5028100;28;19925;-84
2023/06/09 00:57:29;;;;;;;;;;;;;;;17.69;100.00;-18503.34;5021666;28;19929;-82
2023/06/09 00:59:55;;;;;;;;;;;;;;;17.71;100.00;-18503.88;5035955;28;19929;-84
2023/06/09 01:02:21;;;;;;;;;;;;;;;17.77;100.00;-18505.38;5047074;28;19971;-84
2023/06/09 01:04:49;;;;;;;;;;;;;;;17.86;100.00;-18507.72;5041912;28;19928;-83
2023/06/09 01:07:17;;;;;;;;;;;;;;;17.80;100.00;-18506.22;5045557;28;20000;-84
2023/06/09 01:09:45;;;;;;;;;;;;;;;17.85;100.00;-18507.44;5041135;28;19932;-83
2023/06/09 01:12:22;;;;;;;;;;;;;;;17.64;100.00;-18501.97;5046404;28;19932;-84
2023/06/09 01:14:56;;;;;;;;;;;;;;;17.73;100.00;-18504.28;5045328;28;19944;-82
2023/06/09 01:17:23;;;;;;;;;;;;;;;17.55;100.00;-18499.50;5042006;28;19913;-83
2023/06/09 01:19:51;;;;;;;;;;;;;;;17.35;100.00;-18494.19;5024084;28;19925;-83
2023/06/09 01:22:16;;;;;;;;;;;;;;;17.27;100.00;-18492.16;5040802;28;19921;-84
2023/06/09 01:24:47;;;;;;;;;;;;;;;17.36;100.00;-18494.59;5041657;28;19952;-83
2023/06/09 01:27:15;;;;;;;;;;;;;;;17.47;100.00;-18497.34;5044462;28;19928;-82
2023/06/09 01:29:43;;;;;;;;;;;;;;;17.54;100.00;-18499.38;5047437;28;19925;-82
2023/06/09 01:32:09;;;;;;;;;;;;;;;17.42;100.00;-18495.97;5045171;28;19924;-83
2023/06/09 01:34:34;;;;;;;;;;;;;;;17.42;100.00;-18496.09;5042749;28;19973;-83
2023/06/09 01:37:00;;;;;;;;;;;;;;;17.26;100.00;-18491.88;5043245;28;20634;-83
2023/06/09 01:39:26;;;;;;;;;;;;;;;17.22;100.00;-18490.78;5045947;28;19921;-83
2023/06/09 01:41:52;;;;;;;;;;;;;;;17.24;100.00;-18491.19;5052576;28;19949;-83
2023/06/09 01:44:17;;;;;;;;;;;;;;;17.37;100.00;-18494.88;5044019;28;19913;-83
2023/06/09 01:46:42;;;;;;;;;;;;;;;17.30;100.00;-18492.81;5040753;28;19925;-83
2023/06/09 01:49:07;;;;;;;;;;;;;;;17.13;100.00;-18488.47;5044886;28;19910;-83
2023/06/09 01:51:32;;;;;;;;;;;;;;;17.17;100.00;-18489.28;5048111;28;20012;-83
2023/06/09 01:54:05;;;;;;;;;;;;;;;17.39;100.00;-18495.28;5065651;28;20023;-83
2023/06/09 01:56:36;;;;;;;;;;;;;;;17.27;100.00;-18492.16;5046671;28;19920;-83
2023/06/09 01:59:05;;;;;;;;;;;;;;;17.30;100.00;-18492.97;5051430;28;19913;-85
2023/06/09 02:01:32;;;;;;;;;;;;;;;17.31;100.00;-18493.25;5043770;28;19940;-83
2023/06/09 02:03:58;;;;;;;;;;;;;;;17.29;100.00;-18492.69;5046812;28;19925;-83
2023/06/09 02:06:23;;;;;;;;;;;;;;;17.14;100.00;-18488.59;5044283;28;19926;-83
2023/06/09 02:08:48;;;;;;;;;;;;;;;17.09;100.00;-18487.22;5040109;28;19921;-82
2023/06/09 02:11:14;;;;;;;;;;;;;;;16.91;100.00;-18482.44;5045747;28;19929;-84
2023/06/09 02:13:39;;;;;;;;;;;;;;;16.82;100.00;-18480.13;5043634;28;19949;-82
2023/06/09 02:16:04;;;;;;;;;;;;;;;16.85;100.00;-18480.94;5040543;28;19913;-82
2023/06/09 02:18:32;;;;;;;;;;;;;;;16.81;100.00;-18479.84;5056794;28;19925;-82
2023/06/09 02:20:57;;;;;;;;;;;;;;;16.85;100.00;-18480.81;5046979;28;20002;-83
2023/06/09 02:23:22;;;;;;;;;;;;;;;16.85;100.00;-18480.94;5049488;28;19922;-82
2023/06/09 02:25:48;;;;;;;;;;;;;;;16.92;100.00;-18482.72;5051214;28;19913;-84
2023/06/09 02:28:15;;;;;;;;;;;;;;;16.83;100.00;-18480.25;5045167;28;19929;-83
2023/06/09 02:30:40;;;;;;;;;;;;;;;16.72;100.00;-18477.41;5040785;28;19913;-83
2023/06/09 02:33:06;;;;;;;;;;;;;;;16.76;100.00;-18478.50;5051534;28;19973;-83
2023/06/09 02:35:31;;;;;;;;;;;;;;;16.59;100.00;-18473.84;5047226;28;19929;-83
2023/06/09 02:38:00;;;;;;;;;;;;;;;16.65;100.00;-18475.63;5043746;28;19925;-83
2023/06/09 02:40:27;;;;;;;;;;;;;;;16.47;100.00;-18470.69;5055243;23;19987;-81
2023/06/09 02:42:53;;;;;;;;;;;;;;;16.45;100.00;-18470.28;5053782;28;19925;-82
2023/06/09 02:45:18;;;;;;;;;;;;;;;16.37;100.00;-18467.97;5053869;28;19963;-80
2023/06/09 02:47:43;;;;;;;;;;;;;;;16.27;100.00;-18465.22;5052174;28;20303;-81
2023/06/09 02:50:08;;;;;;;;;;;;;;;16.34;100.00;-18467.16;5050235;28;20290;-81
2023/06/09 02:52:34;;;;;;;;;;;;;;;16.29;100.00;-18465.78;5048788;28;19935;-82
2023/06/09 02:55:00;;;;;;;;;;;;;;;16.42;100.00;-18469.47;5048534;28;20337;-81
2023/06/09 02:57:25;;;;;;;;;;;;;;;16.42;100.00;-18469.34;5047068;28;19928;-81
2023/06/09 02:59:51;;;;;;;;;;;;;;;16.51;100.00;-18471.66;5044043;28;19925;-79
2023/06/09 03:02:16;;;;;;;;;;;;;;;16.39;100.00;-18468.66;5044069;28;19950;-80
2023/06/09 03:04:42;;;;;;;;;;;;;;;16.30;100.00;-18466.06;5060184;28;20406;-81
2023/06/09 03:07:09;;;;;;;;;;;;;;;16.40;100.00;-18468.94;5045600;28;19929;-81
2023/06/09 03:09:35;;;;;;;;;;;;;;;16.18;100.00;-18462.91;5044658;28;19929;-81
2023/06/09 03:12:00;;;;;;;;;;;;;;;16.12;100.00;-18461.28;5045814;28;20900;-81
2023/06/09 03:14:25;;;;;;;;;;;;;;;16.12;100.00;-18461.28;5047777;28;19956;-81
2023/06/09 03:16:51;;;;;;;;;;;;;;;15.85;100.00;-18454.03;5047737;28;19924;-81
2023/06/09 03:19:16;;;;;;;;;;;;;;;15.87;100.00;-18454.72;5042749;28;19980;-81
2023/06/09 03:21:43;;;;;;;;;;;;;;;15.77;100.00;-18451.97;5041074;28;19971;-81
2023/06/09 03:24:09;;;;;;;;;;;;;;;15.79;100.00;-18452.66;5051701;28;19927;-82
2023/06/09 03:26:34;;;;;;;;;;;;;;;15.75;100.00;-18451.44;5051782;28;19920;-81
2023/06/09 03:28:59;;;;;;;;;;;;;;;15.89;100.00;-18455.13;5054330;28;19971;-80
2023/06/09 03:31:24;;;;;;;;;;;;;;;15.68;100.00;-18449.50;5055199;28;19947;-81
2023/06/09 03:33:50;;;;;;;;;;;;;;;15.87;100.00;-18454.56;5052162;28;20623;-80
2023/06/09 03:36:15;;;;;;;;;;;;;;;15.63;100.00;-18448.13;5051373;28;19924;-81
2023/06/09 03:38:41;;;;;;;;;;;;;;;15.27;100.00;-18438.56;5051388;28;20424;-80
2023/06/09 03:41:06;;;;;;;;;;;;;;;15.28;100.00;-18438.97;5055293;28;19921;-81
2023/06/09 03:43:31;;;;;;;;;;;;;;;15.54;100.00;-18445.94;5050840;28;19921;-81
2023/06/09 03:45:56;;;;;;;;;;;;;;;15.36;100.00;-18441.03;5053933;28;19925;-81
2023/06/09 03:48:22;;;;;;;;;;;;;;;15.28;100.00;-18438.84;5065806;28;19924;-80
2023/06/09 03:50:47;;;;;;;;;;;;;;;15.31;100.00;-18439.66;5050596;28;19975;-80
2023/06/09 03:53:12;;;;;;;;;;;;;;;15.40;100.00;-18442.13;5054759;28;19924;-80
2023/06/09 03:55:38;;;;;;;;;;;;;;;15.49;100.00;-18444.59;5052186;28;19927;-80
2023/06/09 03:58:04;;;;;;;;;;;;;;;15.58;100.00;-18447.03;5052891;28;19925;-80
2023/06/09 04:00:29;;;;;;;;;;;;;;;15.55;100.00;-18446.22;5049906;28;19932;-80
2023/06/09 04:02:54;;;;;;;;;;;;;;;15.53;100.00;-18445.53;5051302;28;20404;-80
2023/06/09 04:05:20;;;;;;;;;;;;;;;15.40;100.00;-18442.13;5038487;28;20777;-81
2023/06/09 04:07:45;;;;;;;;;;;;;;;15.50;100.00;-18444.72;5049541;28;19932;-81
2023/06/09 04:10:10;;;;;;;;;;;;;;;15.35;100.00;-18440.75;5053312;28;19921;-81
2023/06/09 04:12:36;;;;;;;;;;;;;;;15.38;100.00;-18441.56;5051128;28;19939;-81
2023/06/09 04:15:01;;;;;;;;;;;;;;;15.54;100.00;-18445.94;5050437;28;19921;-81
2023/06/09 04:17:27;;;;;;;;;;;;;;;15.64;100.00;-18448.56;5047679;28;19929;-81
2023/06/09 04:19:54;;;;;;;;;;;;;;;15.70;100.00;-18450.19;5049801;28;19928;-81
2023/06/09 04:22:19;;;;;;;;;;;;;;;15.56;100.00;-18446.34;5048279;28;19935;-81
2023/06/09 04:24:45;;;;;;;;;;;;;;;15.85;100.00;-18454.16;5052632;28;19924;-81
2023/06/09 04:27:15;;;;;;;;;;;;;;;15.98;100.00;-18457.72;5044361;28;19921;-80
2023/06/09 04:29:41;;;;;;;;;;;;;;;16.00;100.00;-18458.25;5059157;28;20304;-80
2023/06/09 04:32:07;;;;;;;;;;;;;;;15.91;100.00;-18455.66;5054310;28;19928;-80
2023/06/09 04:34:38;;;;;;;;;;;;;;;15.93;100.00;-18456.34;5052008;28;19987;-81
2023/06/09 04:37:04;;;;;;;;;;;;;;;15.77;100.00;-18452.13;5047587;28;20396;-82
2023/06/09 04:39:29;;;;;;;;;;;;;;;15.80;100.00;-18452.78;5056650;28;19943;-81
2023/06/09 04:41:55;;;;;;;;;;;;;;;15.90;100.00;-18455.38;5066738;28;19921;-81
2023/06/09 04:44:20;;;;;;;;;;;;;;;16.15;100.00;-18462.22;5053381;28;19920;-81
2023/06/09 04:46:46;;;;;;;;;;;;;;;16.30;100.00;-18466.19;5053517;28;19948;-81
2023/06/09 04:49:12;;;;;;;;;;;;;;;16.17;100.00;-18462.63;5053466;28;20314;-81
2023/06/09 04:51:48;;;;;;;;;;;;;;;16.33;100.00;-18466.88;5044233;28;19921;-81
2023/06/09 04:54:14;;;;;;;;;;;;;;;16.24;100.00;-18464.56;5047864;28;19921;-80
2023/06/09 04:56:40;;;;;;;;;;;;;;;16.39;100.00;-18468.50;5053927;28;19921;-80
2023/06/09 04:59:06;;;;;;;;;;;;;;;16.46;100.00;-18470.44;5065624;28;20191;-80
2023/06/09 05:01:33;;;;;;;;;;;;;;;16.30;100.00;-18466.19;5052703;28;19947;-81
2023/06/09 05:03:59;;;;;;;;;;;;;;;16.47;100.00;-18470.84;5054551;28;20676;-80
2023/06/09 05:06:25;;;;;;;;;;;;;;;16.50;100.00;-18471.38;5048612;23;19933;-83
2023/06/09 05:08:51;;;;;;;;;;;;;;;16.28;100.00;-18465.63;5027779;28;21092;-84
2023/06/09 05:11:16;;;;;;;;;;;;;;;16.34;100.00;-18467.16;5006820;28;19967;-82
2023/06/09 05:13:41;;;;;;;;;;;;;;;16.51;100.00;-18471.66;5006052;28;19926;-83
2023/06/09 05:16:07;;;;;;;;;;;;;;;16.55;100.00;-18472.88;5008710;28;19969;-84
2023/06/09 05:18:32;;;;;;;;;;;;;;;16.66;100.00;-18475.75;5004160;28;19976;-85
2023/06/09 05:20:57;;;;;;;;;;;;;;;16.81;100.00;-18479.84;5009635;28;19936;-85
2023/06/09 05:23:22;;;;;;;;;;;;;;;16.88;100.00;-18481.75;5006884;28;20323;-85
2023/06/09 05:25:48;;;;;;;;;;;;;;;17.01;100.00;-18485.03;5005674;28;19929;-85
2023/06/09 05:28:14;;;;;;;;;;;;;;;17.12;100.00;-18488.06;5006806;28;19930;-85
2023/06/09 05:30:39;;;;;;;;;;;;;;;17.36;100.00;-18494.47;5007198;28;19931;-85
2023/06/09 05:33:05;;;;;;;;;;;;;;;17.08;100.00;-18486.97;5007260;28;19933;-84
2023/06/09 05:35:31;;;;;;;;;;;;;;;17.11;100.00;-18487.91;5009068;28;19928;-85
2023/06/09 05:37:56;;;;;;;;;;;;;;;17.39;100.00;-18495.16;5009424;28;19929;-85
2023/06/09 05:40:21;;;;;;;;;;;;;;;17.45;100.00;-18496.78;5008598;28;20663;-85
2023/06/09 05:42:47;;;;;;;;;;;;;;;17.76;100.00;-18505.25;5023089;28;19933;-84
2023/06/09 05:45:12;;;;;;;;;;;;;;;17.48;100.00;-18497.75;4986676;28;19995;-85
2023/06/09 05:47:37;;;;;;;;;;;;;;;17.66;100.00;-18502.50;5004067;28;19981;-85
2023/06/09 05:50:03;;;;;;;;;;;;;;;17.64;100.00;-18501.97;5009257;28;19917;-85
2023/06/09 05:52:28;;;;;;;;;;;;;;;18.03;100.00;-18512.47;5011157;28;20016;-85
2023/06/09 05:54:53;;;;;;;;;;;;;;;18.04;100.00;-18512.75;5010060;28;20099;-86
2023/06/09 05:57:19;;;;;;;;;;;;;;;18.19;100.00;-18516.72;5012997;28;20414;-85
2023/06/09 05:59:44;;;;;;;;;;;;;;;18.17;100.00;-18516.16;5011219;28;20482;-85
2023/06/09 06:02:12;;;;;;;;;;;;;;;18.23;100.00;-18517.81;5013682;28;20056;-85
2023/06/09 06:04:37;;;;;;;;;;;;;;;18.24;100.00;-18518.06;5012701;28;20230;-85
2023/06/09 06:07:04;;;;;;;;;;;;;;;18.48;100.00;-18524.34;5029659;28;20013;-85
2023/06/09 06:09:29;;;;;;;;;;;;;;;18.58;100.00;-18527.06;5013218;28;21327;-85
2023/06/09 06:11:55;;;;;;;;;;;;;;;18.66;100.00;-18529.25;4988424;28;19932;-84
2023/06/09 06:14:20;;;;;;;;;;;;;;;18.64;100.00;-18528.72;4994246;28;19925;-85
2023/06/09 06:16:46;;;;;;;;;;;;;;;18.78;100.00;-18532.25;4983643;28;20404;-85
2023/06/09 06:19:11;;;;;;;;;;;;;;;18.87;100.00;-18534.72;5012767;28;19984;-84
2023/06/09 06:21:37;;;;;;;;;;;;;;;18.91;100.00;-18535.81;5013112;28;19924;-84
2023/06/09 06:24:03;;;;;;;;;;;;;;;19.07;100.00;-18540.16;5011945;28;19921;-84
2023/06/09 06:26:28;;;;;;;;;;;;;;;19.27;100.00;-18545.47;5012769;28;20345;-84
2023/06/09 06:28:54;;;;;;;;;;;;;;;19.34;100.00;-18547.38;5007552;28;19926;-85
2023/06/09 06:31:19;;;;;;;;;;;;;;;19.60;100.00;-18554.19;5009356;28;20000;-84
2023/06/09 06:33:44;;;;;;;;;;;;;;;19.86;100.00;-18561.16;5012382;28;19928;-85
2023/06/09 06:36:10;;;;;;;;;;;;;;;20.11;100.00;-18567.69;5011823;28;20377;-84
2023/06/09 06:38:35;;;;;;;;;;;;;;;20.17;100.00;-18569.44;5010936;28;19949;-85
2023/06/09 06:41:01;;;;;;;;;;;;;;;20.39;100.00;-18575.16;5009642;28;20376;-85
2023/06/09 06:43:26;;;;;;;;;;;;;;;20.44;100.00;-18576.66;5026665;28;19921;-85
2023/06/09 06:45:51;;;;;;;;;;;;;;;20.54;100.00;-18579.13;5006788;28;19922;-84
2023/06/09 06:48:16;;;;;;;;;;;;;;;20.57;100.00;-18579.94;5011135;28;19928;-85
2023/06/09 06:50:41;;;;;;;;;;;;;;;20.57;100.00;-18579.94;5007631;28;19929;-85
2023/06/09 06:53:08;;;;;;;;;;;;;;;20.61;100.00;-18581.03;5012649;28;19922;-84
2023/06/09 06:55:34;;;;;;;;;;;;;;;20.55;100.00;-18579.38;5010395;28;20005;-85
2023/06/09 06:57:59;;;;;;;;;;;;;;;20.56;100.00;-18579.66;5007375;28;20020;-85
2023/06/09 07:00:25;;;;;;;;;;;;;;;20.69;100.00;-18583.19;5007476;28;19922;-85
2023/06/09 07:02:50;;;;;;;;;;;;;;;20.94;100.00;-18589.88;5008951;28;19939;-85
2023/06/09 07:05:15;;;;;;;;;;;;;;;21.11;100.00;-18594.34;4992379;28;20402;-84
2023/06/09 07:07:41;;;;;;;;;;;;;;;21.09;100.00;-18593.94;5009036;28;19921;-84
2023/06/09 07:10:09;;;;;;;;;;;;;;;21.22;100.00;-18597.34;5009754;28;20100;-85
2023/06/09 07:12:34;;;;;;;;;;;;;;;21.40;100.00;-18602.09;5011725;28;19918;-85
2023/06/09 07:15:00;;;;;;;;;;;;;;;21.43;100.00;-18602.78;5011968;28;19929;-85
2023/06/09 07:17:25;;;;;;;;;;;;;;;21.62;100.00;-18607.94;5005581;28;20032;-85
2023/06/09 07:19:50;;;;;;;;;;;;;;;21.75;100.00;-18611.34;5000943;28;19918;-84
2023/06/09 07:22:16;;;;;;;;;;;;;;;21.84;100.00;-18613.94;4988242;28;20436;-85
2023/06/09 07:24:41;;;;;;;;;;;;;;;22.01;100.00;-18618.28;5034518;28;20130;-85
2023/06/09 07:27:07;;;;;;;;;;;;;;;21.99;100.00;-18617.88;5002933;28;19917;-86
2023/06/09 07:29:34;;;;;;;;;;;;;;;21.96;100.00;-18616.91;5015374;28;19925;-85
2023/06/09 07:32:00;;;;;;;;;;;;;;;22.44;100.00;-18629.69;5007111;28;19925;-85
2023/06/09 07:34:27;;;;;;;;;;;;;;;22.62;100.00;-18634.44;5014966;28;19925;-85
2023/06/09 07:36:53;;;;;;;;;;;;;;;22.93;100.00;-18642.72;4995133;28;19933;-85
2023/06/09 07:39:19;;;;;;;;;;;;;;;23.00;100.00;-18644.63;5013304;28;19922;-85
2023/06/09 07:41:44;;;;;;;;;;;;;;;23.03;100.00;-18645.31;4992534;28;20325;-85
2023/06/09 07:44:09;;;;;;;;;;;;;;;23.13;100.00;-18648.16;4997966;28;19922;-85
2023/06/09 07:46:35;;;;;;;;;;;;;;;23.29;100.00;-18652.22;4988664;28;19930;-85
2023/06/09 07:49:00;;;;;;;;;;;;;;;23.40;100.00;-18655.22;4988014;28;19922;-85
2023/06/09 07:51:26;;;;;;;;;;;;;;;23.55;98.12;-18659.28;4990325;28;20308;-85
2023/06/09 07:53:51;;;;;;;;;;;;;;;23.54;99.60;-18659.00;4988143;28;19926;-84
2023/06/09 07:56:17;;;;;;;;;;;;;;;23.68;98.65;-18662.66;4989875;28;20301;-85
2023/06/09 07:58:42;;;;;;;;;;;;;;;23.95;99.16;-18669.84;4973601;28;19953;-85
2023/06/09 08:01:07;;;;;;;;;;;;;;;24.12;91.52;-18674.31;4993884;28;19930;-85
2023/06/09 08:03:34;;;;;;;;;;;;;;;24.05;90.67;-18672.44;4987737;28;20400;-86
2023/06/09 08:06:00;;;;;;;;;;;;;;;24.33;93.28;-18679.88;5010518;28;19932;-86
2023/06/09 08:08:25;;;;;;;;;;;;;;;24.54;88.07;-18685.44;5006590;28;19929;-85
2023/06/09 08:10:50;;;;;;;;;;;;;;;24.52;88.46;-18685.03;5022481;28;19926;-85
2023/06/09 08:13:16;;;;;;;;;;;;;;;24.60;87.44;-18686.94;5011522;28;19975;-85
2023/06/09 08:15:41;;;;;;;;;;;;;;;24.71;86.48;-18689.91;4998512;28;19967;-85
2023/06/09 08:18:06;;;;;;;;;;;;;;;24.83;80.84;-18693.16;5007659;28;19962;-85
2023/06/09 08:20:32;;;;;;;;;;;;;;;24.82;84.32;-18692.88;5008025;28;20005;-85
2023/06/09 08:22:57;;;;;;;;;;;;;;;25.07;86.25;-18699.53;5004559;28;19921;-85
2023/06/09 08:25:24;;;;;;;;;;;;;;;25.30;82.44;-18705.47;5007312;28;20015;-85
2023/06/09 08:27:49;;;;;;;;;;;;;;;25.34;77.10;-18706.56;5008476;28;19925;-85
2023/06/09 08:30:14;;;;;;;;;;;;;;;25.42;78.65;-18708.88;5007045;28;19933;-85
2023/06/09 08:32:40;;;;;;;;;;;;;;;25.46;76.90;-18709.81;5006976;28;19930;-85
2023/06/09 08:35:06;;;;;;;;;;;;;;;25.55;76.65;-18712.09;5008003;28;20296;-85
2023/06/09 08:37:32;;;;;;;;;;;;;;;25.66;78.80;-18715.09;4988790;28;19925;-86
2023/06/09 08:40:00;;;;;;;;;;;;;;;25.94;75.81;-18722.41;5004405;28;19985;-85
2023/06/09 08:42:25;;;;;;;;;;;;;;;25.57;78.20;-18712.66;5006621;28;20414;-85
2023/06/09 08:44:58;;;;;;;;;;;;;;;25.68;75.01;-18715.63;5004556;28;19929;-85
2023/06/09 08:47:24;;;;;;;;;;;;;;;25.83;75.86;-18719.56;5009811;28;19937;-85
2023/06/09 08:49:51;;;;;;;;;;;;;;;25.80;74.27;-18718.88;5006573;28;20012;-85
2023/06/09 08:52:17;;;;;;;;;;;;;;;26.07;76.07;-18725.91;5007647;28;19921;-85
2023/06/09 08:54:44;;;;;;;;;;;;;;;25.87;73.55;-18720.63;5008768;28;20005;-86
2023/06/09 08:57:09;;;;;;;;;;;;;;;25.97;76.44;-18723.22;5009185;28;19929;-85
2023/06/09 08:59:35;;;;;;;;;;;;;;;26.03;70.41;-18724.97;4988112;28;20016;-85
2023/06/09 09:02:06;;;;;;;;;;;;;;;26.22;67.93;-18729.84;4988497;28;20008;-85
2023/06/09 09:04:31;;;;;;;;;;;;;;;26.39;70.60;-18734.28;5007348;28;19921;-85
2023/06/09 09:06:57;;;;;;;;;;;;;;;26.46;66.24;-18736.19;5007843;28;20387;-86
2023/06/09 09:09:22;;;;;;;;;;;;;;;26.57;65.65;-18739.03;5007738;28;19921;-86
2023/06/09 09:11:50;;;;;;;;;;;;;;;26.56;65.84;-18738.91;5006778;28;20012;-85
2023/06/09 09:14:15;;;;;;;;;;;;;;;26.69;62.81;-18742.41;4995475;28;20034;-85
2023/06/09 09:16:41;;;;;;;;;;;;;;;26.71;61.31;-18742.94;4989017;28;20377;-85
2023/06/09 09:19:06;;;;;;;;;;;;;;;26.74;63.22;-18743.63;4986055;28;19932;-85
2023/06/09 09:21:34;;;;;;;;;;;;;;;26.74;63.54;-18743.75;5010063;28;20016;-85
2023/06/09 09:24:04;;;;;;;;;;;;;;;26.90;61.32;-18747.81;5005008;28;19918;-85
2023/06/09 09:26:30;;;;;;;;;;;;;;;27.10;59.92;-18753.22;5008098;28;20012;-85
2023/06/09 09:28:56;;;;;;;;;;;;;;;27.11;57.41;-18753.47;5004087;28;20460;-85
2023/06/09 09:31:29;;;;;;;;;;;;;;;27.29;55.36;-18758.22;5010080;28;20288;-85
2023/06/09 09:33:54;;;;;;;;;;;;;;;27.37;59.54;-18760.38;5023108;28;20384;-85
2023/06/09 09:36:19;;;;;;;;;;;;;;;27.31;57.47;-18758.63;5025487;28;19928;-85
2023/06/09 09:38:45;;;;;;;;;;;;;;;27.44;57.09;-18762.25;5007299;28;19926;-86
2023/06/09 09:41:13;;;;;;;;;;;;;;;27.47;56.12;-18762.94;4991376;28;19924;-84
2023/06/09 09:46:52;;;;;;;;;;;;;;;27.82;56.92;-18772.13;4900944;29;19923;-86
2023/06/09 10:05:30;;;;;;;;;;;;;;;28.58;48.64;-18792.09;4760809;29;3968887;-86
2023/06/09 10:12:04;;;;;;;;;;;;;;;;;;;;;
2023/06/09 10:14:49;;;;;;;;;;;;;;;28.65;45.73;-18794.09;4328084;29;15348270;-85
2023/06/09 10:17:57;;;;;;;;;;;;;;;28.77;45.63;-18797.34;4528892;29;8440002;-85
2023/06/09 10:20:26;;;;;;;;;;;;;;;29.07;46.96;-18805.16;4715783;29;3966351;-86
2023/06/09 10:22:59;;;;;;;;;;;;;;;29.01;46.07;-18803.69;4787134;29;19965;-85
2023/06/09 10:28:16;;;;;;;;;;;;;;;29.18;45.58;-18808.13;4673374;29;4006667;-86
2023/06/09 10:33:56;;;;;;;;;;;;;;;29.29;43.06;-18810.81;4442330;29;4008835;-85
2023/06/09 10:42:29;;;;;;;;;;;;;;;29.55;42.79;-18817.69;5091665;27;19920;-79
2023/06/09 10:45:02;;;;;;;;;;;;;;;29.53;43.28;-18817.28;5108023;27;19969;-79
2023/06/09 10:47:41;;;;;;;;;;;;;;;29.72;44.42;-18822.13;5075651;27;19920;-78
2023/06/09 10:50:06;;;;;;;;;;;;;;;29.74;43.67;-18822.66;5075511;27;19938;-77
2023/06/09 10:52:34;;;;;;;;;;;;;;;29.57;42.14;-18818.34;5084087;27;19916;-77
2023/06/09 10:55:12;;;;;;;;;;;;;;;29.55;43.60;-18817.69;5079441;27;19956;-78
2023/06/09 10:57:39;;;;;;;;;;;;;;;29.61;42.31;-18819.31;5087288;28;20322;-77
2023/06/09 11:00:11;;;;;;;;;;;;;;;29.76;42.38;-18823.34;5082468;28;20558;-78
2023/06/09 11:02:36;;;;;;;;;;;;;;;29.87;40.85;-18826.16;5083973;27;19916;-78
2023/06/09 11:05:04;;;;;;;;;;;;;;;29.80;41.19;-18824.28;5081771;27;20035;-77
2023/06/09 11:07:29;;;;;;;;;;;;;;;29.97;40.54;-18828.72;5084379;27;19916;-78
2023/06/09 11:09:55;;;;;;;;;;;;;;;30.07;41.51;-18831.56;5080836;27;19924;-78
2023/06/09 11:12:26;;;;;;;;;;;;;;;30.09;40.58;-18832.09;5079367;27;19932;-77
2023/06/09 11:14:52;;;;;;;;;;;;;;;30.19;39.86;-18834.66;5078309;27;19986;-77
2023/06/09 11:17:19;;;;;;;;;;;;;;;30.20;38.82;-18834.91;5087784;27;19934;-78
2023/06/09 11:19:44;;;;;;;;;;;;;;;30.13;39.00;-18833.16;5085624;27;19920;-78
2023/06/09 11:22:11;;;;;;;;;;;;;;;30.02;39.32;-18830.06;5087822;27;19920;-77
2023/06/09 11:24:49;;;;;;;;;;;;;;;30.23;39.57;-18835.72;5085106;28;19936;-80
2023/06/09 11:27:17;;;;;;;;;;;;;;;30.47;39.90;-18842.06;5079057;28;20724;-79
2023/06/09 11:29:43;;;;;;;;;;;;;;;30.53;37.93;-18843.66;5085614;27;19916;-79
2023/06/09 11:32:08;;;;;;;;;;;;;;;30.62;37.84;-18845.94;5084792;27;20310;-77
2023/06/09 11:34:51;;;;;;;;;;;;;;;30.69;37.12;-18847.69;5086948;27;19924;-78
2023/06/09 11:37:17;;;;;;;;;;;;;;;30.97;36.96;-18855.09;5107369;28;19929;-77
2023/06/09 11:39:43;;;;;;;;;;;;;;;31.29;38.34;-18863.44;5083768;28;20454;-79
2023/06/09 11:42:08;;;;;;;;;;;;;;;31.28;37.29;-18863.28;5105199;27;19930;-80
2023/06/09 11:44:37;;;;;;;;;;;;;;;31.44;37.30;-18867.59;5109991;28;19959;-79
2023/06/09 11:47:22;;;;;;;;;;;;;;;31.18;35.92;-18860.59;5103814;28;19923;-79
2023/06/09 11:49:57;;;;;;;;;;;;;;;31.46;35.46;-18868.00;5103272;28;19956;-80
2023/06/09 11:52:22;;;;;;;;;;;;;;;31.26;34.52;-18862.75;5089487;28;20394;-80
2023/06/09 11:54:47;;;;;;;;;;;;;;;31.25;34.84;-18862.63;5075832;28;19927;-80
2023/06/09 11:57:15;;;;;;;;;;;;;;;31.04;35.28;-18856.97;5092057;28;19927;-80
2023/06/09 11:59:40;;;;;;;;;;;;;;;31.24;36.36;-18862.34;5081643;28;19927;-80
2023/06/09 12:02:06;;;;;;;;;;;;;;;31.44;36.93;-18867.59;5085656;28;20272;-80
2023/06/09 12:04:31;;;;;;;;;;;;;;;31.80;36.17;-18876.88;5089414;28;19939;-78
2023/06/09 12:06:56;;;;;;;;;;;;;;;31.99;34.95;-18881.97;5084321;28;19916;-78
2023/06/09 12:09:23;;;;;;;;;;;;;;;32.03;34.73;-18883.03;5087637;28;20573;-79
2023/06/09 12:11:49;;;;;;;;;;;;;;;32.04;33.16;-18883.31;5088972;28;19923;-79
2023/06/09 12:14:14;;;;;;;;;;;;;;;31.81;33.60;-18877.25;5089730;28;19969;-80
2023/06/09 12:16:40;;;;;;;;;;;;;;;31.97;33.39;-18881.44;5077361;28;19920;-78
2023/06/09 12:19:05;;;;;;;;;;;;;;;32.38;33.32;-18892.03;5092723;28;19920;-79
2023/06/09 12:21:33;;;;;;;;;;;;;;;32.40;34.86;-18892.56;5085359;28;19927;-78
2023/06/09 12:23:58;;;;;;;;;;;;;;;32.45;34.25;-18893.91;5090866;28;20003;-78
2023/06/09 12:26:23;;;;;;;;;;;;;;;32.51;34.47;-18895.53;5076273;28;19952;-78
2023/06/09 12:28:55;;;;;;;;;;;;;;;32.45;34.46;-18894.03;5074457;28;19969;-79
2023/06/09 12:31:20;;;;;;;;;;;;;;;32.48;34.34;-18894.84;5088569;28;19928;-79
2023/06/09 12:33:46;;;;;;;;;;;;;;;32.46;33.23;-18894.19;5087200;28;19931;-78
2023/06/09 12:36:12;;;;;;;;;;;;;;;32.29;33.70;-18889.75;5087766;28;19934;-78
2023/06/09 12:38:38;;;;;;;;;;;;;;;32.44;33.43;-18893.78;5080374;28;19915;-78
2023/06/09 12:41:05;;;;;;;;;;;;;;;32.55;34.37;-18896.59;5082230;28;20057;-78
2023/06/09 12:43:42;;;;;;;;;;;;;;;32.48;33.70;-18894.72;5085778;28;19947;-78
2023/06/09 12:46:07;;;;;;;;;;;;;;;32.20;34.31;-18887.34;5086953;28;19924;-78
2023/06/09 12:48:33;;;;;;;;;;;;;;;32.34;33.73;-18891.09;5085802;28;19916;-78
2023/06/09 12:50:58;;;;;;;;;;;;;;;32.70;33.54;-18900.47;5087385;28;19927;-78
2023/06/09 12:53:23;;;;;;;;;;;;;;;32.70;33.90;-18900.47;5081313;28;19920;-78
2023/06/09 12:55:49;;;;;;;;;;;;;;;32.63;33.72;-18898.75;5082767;28;19917;-79
2023/06/09 12:58:14;;;;;;;;;;;;;;;32.69;34.37;-18900.22;5081297;28;19978;-78
2023/06/09 13:00:39;;;;;;;;;;;;;;;32.66;34.85;-18899.56;5064081;28;19928;-79
2023/06/09 13:03:07;;;;;;;;;;;;;;;32.38;33.21;-18892.16;5078737;28;19924;-78